createdAt,value
2022-08-23T00:00:26.044Z,1019.27
2022-08-23T00:01:25.133Z,1019.27
2022-08-23T00:02:25.393Z,1019.26
2022-08-23T00:03:25.589Z,1019.29
2022-08-23T00:04:30.418Z,1019.26
2022-08-23T00:05:26.876Z,1019.24
2022-08-23T00:06:26.192Z,1019.23
2022-08-23T00:07:26.243Z,1019.21
2022-08-23T00:08:26.398Z,1019.25
2022-08-23T00:09:26.629Z,1019.25
2022-08-23T00:10:26.778Z,1019.22
2022-08-23T00:11:27.429Z,1019.23
2022-08-23T00:12:27.118Z,1019.22
2022-08-23T00:13:28.523Z,1019.23
2022-08-23T00:14:28.485Z,1019.21
2022-08-23T00:15:27.662Z,1019.24
2022-08-23T00:16:27.931Z,1019.22
2022-08-23T00:17:34.380Z,1019.25
2022-08-23T00:18:30.433Z,1019.23
2022-08-23T00:19:29.201Z,1019.22
2022-08-23T00:20:29.496Z,1019.23
2022-08-23T00:21:28.658Z,1019.19
2022-08-23T00:22:28.819Z,1019.19
2022-08-23T00:23:28.979Z,1019.15
2022-08-23T00:24:29.197Z,1019.15
2022-08-23T00:25:29.338Z,1019.17
2022-08-23T00:26:29.624Z,1019.17
2022-08-23T00:27:29.768Z,1019.15
2022-08-23T00:28:29.880Z,1019.13
2022-08-23T00:29:30.048Z,1019.15
2022-08-23T00:30:30.267Z,1019.08
2022-08-23T00:31:30.378Z,1019.09
2022-08-23T00:32:30.538Z,1019.08
2022-08-23T00:33:30.772Z,1019.09
2022-08-23T00:34:30.859Z,1019.06
2022-08-23T00:35:31.020Z,1019.05
2022-08-23T00:36:31.344Z,1019.02
2022-08-23T00:37:31.400Z,1019.00
2022-08-23T00:38:33.355Z,1018.93
2022-08-23T00:39:31.820Z,1018.96
2022-08-23T00:40:31.916Z,1018.94
2022-08-23T00:41:32.079Z,1018.94
2022-08-23T00:42:32.285Z,1018.96
2022-08-23T00:43:32.400Z,1018.95
2022-08-23T00:44:32.631Z,1018.94
2022-08-23T00:45:32.782Z,1018.95
2022-08-23T00:46:32.950Z,1018.97
2022-08-23T00:47:33.111Z,1018.92
2022-08-23T00:48:33.377Z,1018.91
2022-08-23T00:49:33.501Z,1018.89
2022-08-23T00:50:33.651Z,1018.91
2022-08-23T00:51:43.123Z,1018.89
2022-08-23T00:52:34.981Z,1018.88
2022-08-23T00:53:34.170Z,1018.87
2022-08-23T00:54:34.422Z,1018.92
2022-08-23T00:55:34.492Z,1018.93
2022-08-23T00:56:34.672Z,1018.92
2022-08-23T00:57:34.912Z,1018.93
2022-08-23T00:58:35.037Z,1018.89
2022-08-23T00:59:35.181Z,1018.87
2022-08-23T01:00:35.382Z,1018.88
2022-08-23T01:01:35.603Z,1018.82
2022-08-23T01:02:35.693Z,1018.87
2022-08-23T01:03:38.601Z,1018.86
2022-08-23T01:04:36.109Z,1018.84
2022-08-23T01:05:36.213Z,1018.83
2022-08-23T01:06:36.391Z,1018.85
2022-08-23T01:07:36.543Z,1018.86
2022-08-23T01:08:36.733Z,1018.88
2022-08-23T01:09:36.893Z,1018.87
2022-08-23T01:10:37.083Z,1018.91
2022-08-23T01:11:37.340Z,1018.89
2022-08-23T01:12:37.442Z,1018.91
2022-08-23T01:13:37.599Z,1018.88
2022-08-23T01:14:37.864Z,1018.86
2022-08-23T01:15:37.970Z,1018.86
2022-08-23T01:16:38.173Z,1018.85
2022-08-23T01:17:38.421Z,1018.85
2022-08-23T01:18:38.534Z,1018.88
2022-08-23T01:19:38.688Z,1018.85
2022-08-23T01:20:38.935Z,1018.86
2022-08-23T01:21:41.191Z,1018.80
2022-08-23T01:22:39.231Z,1018.84
2022-08-23T01:23:39.452Z,1018.84
2022-08-23T01:25:05.879Z,1018.85
2022-08-23T01:25:40.743Z,1018.84
2022-08-23T01:26:40.026Z,1018.90
2022-08-23T01:27:40.149Z,1018.91
2022-08-23T01:28:40.264Z,1018.92
2022-08-23T01:29:40.424Z,1018.93
2022-08-23T01:30:40.667Z,1018.90
2022-08-23T01:31:40.784Z,1018.90
2022-08-23T01:32:40.946Z,1018.90
2022-08-23T01:33:41.186Z,1018.90
2022-08-23T01:34:45.946Z,1018.91
2022-08-23T01:35:42.564Z,1018.93
2022-08-23T01:36:41.664Z,1018.92
2022-08-23T01:37:41.824Z,1018.92
2022-08-23T01:38:41.994Z,1018.91
2022-08-23T01:39:42.226Z,1018.93
2022-08-23T01:40:42.317Z,1018.93
2022-08-23T01:41:42.485Z,1018.93
2022-08-23T01:42:42.664Z,1018.96
2022-08-23T01:43:42.827Z,1019.01
2022-08-23T01:44:43.037Z,1018.96
2022-08-23T01:45:43.229Z,1018.97
2022-08-23T01:46:43.345Z,1018.97
2022-08-23T01:47:43.505Z,1018.99
2022-08-23T01:48:43.732Z,1018.94
2022-08-23T01:49:43.845Z,1018.97
2022-08-23T01:50:44.028Z,1018.96
2022-08-23T01:51:44.257Z,1018.98
2022-08-23T01:52:47.028Z,1018.95
2022-08-23T01:53:45.517Z,1018.96
2022-08-23T01:54:44.797Z,1018.94
2022-08-23T01:55:44.892Z,1018.94
2022-08-23T01:56:45.047Z,1018.94
2022-08-23T01:57:46.935Z,1018.94
2022-08-23T01:58:45.416Z,1018.92
2022-08-23T01:59:45.566Z,1018.92
2022-08-23T02:00:45.768Z,1018.95
2022-08-23T02:01:45.976Z,1018.91
2022-08-23T02:02:46.077Z,1018.89
2022-08-23T02:03:46.255Z,1018.88
2022-08-23T02:04:46.416Z,1018.91
2022-08-23T02:05:46.641Z,1018.86
2022-08-23T02:06:46.826Z,1018.87
2022-08-23T02:07:46.937Z,1018.84
2022-08-23T02:08:47.137Z,1018.87
2022-08-23T02:09:47.380Z,1018.84
2022-08-23T02:10:47.505Z,1018.83
2022-08-23T02:11:47.665Z,1018.83
2022-08-23T02:12:47.950Z,1018.82
2022-08-23T02:13:48.021Z,1018.87
2022-08-23T02:14:48.177Z,1018.91
2022-08-23T02:15:48.452Z,1018.91
2022-08-23T02:17:03.340Z,1018.91
2022-08-23T02:17:49.689Z,1018.89
2022-08-23T02:18:48.888Z,1018.91
2022-08-23T02:19:49.089Z,1018.87
2022-08-23T02:20:49.253Z,1018.84
2022-08-23T02:21:49.400Z,1018.85
2022-08-23T02:22:49.669Z,1018.86
2022-08-23T02:23:49.778Z,1018.84
2022-08-23T02:24:49.989Z,1018.81
2022-08-23T02:25:50.262Z,1018.86
2022-08-23T02:26:50.309Z,1018.85
2022-08-23T02:27:51.489Z,1018.85
2022-08-23T02:28:50.771Z,1018.87
2022-08-23T02:29:52.817Z,1018.88
2022-08-23T02:30:51.039Z,1018.89
2022-08-23T02:31:51.292Z,1018.92
2022-08-23T02:32:51.418Z,1018.91
2022-08-23T02:35:06.332Z,1018.89
2022-08-23T02:36:06.657Z,1018.89
2022-08-23T02:37:06.685Z,1018.90
2022-08-23T02:38:06.853Z,1018.89
2022-08-23T02:39:07.105Z,1018.86
2022-08-23T02:40:07.276Z,1018.84
2022-08-23T02:41:07.483Z,1018.88
2022-08-23T02:42:07.549Z,1018.83
2022-08-23T02:43:07.714Z,1018.85
2022-08-23T02:44:07.956Z,1018.85
2022-08-23T02:45:08.072Z,1018.89
2022-08-23T02:46:08.244Z,1018.91
2022-08-23T02:47:08.427Z,1018.91
2022-08-23T02:48:08.653Z,1018.92
2022-08-23T02:49:08.774Z,1018.91
2022-08-23T02:50:08.944Z,1018.94
2022-08-23T02:51:09.215Z,1018.92
2022-08-23T02:52:09.304Z,1018.94
2022-08-23T02:53:09.464Z,1018.95
2022-08-23T02:54:09.726Z,1018.98
2022-08-23T02:55:09.810Z,1018.99
2022-08-23T02:56:21.160Z,1018.92
2022-08-23T02:57:11.221Z,1018.93
2022-08-23T02:58:10.350Z,1018.98
2022-08-23T02:59:10.513Z,1018.95
2022-08-23T03:00:10.748Z,1018.99
2022-08-23T03:01:10.872Z,1019.00
2022-08-23T03:02:11.031Z,1018.99
2022-08-23T03:03:11.159Z,1019.01
2022-08-23T03:04:11.392Z,1018.99
2022-08-23T03:05:11.527Z,1018.99
2022-08-23T03:06:25.810Z,1019.00
2022-08-23T03:07:12.928Z,1019.01
2022-08-23T03:08:12.035Z,1019.00
2022-08-23T03:09:12.196Z,1019.05
2022-08-23T03:10:12.488Z,1019.03
2022-08-23T03:11:12.535Z,1019.05
2022-08-23T03:12:12.787Z,1019.02
2022-08-23T03:13:12.857Z,1019.04
2022-08-23T03:14:13.026Z,1019.06
2022-08-23T03:15:13.267Z,1019.10
2022-08-23T03:16:13.392Z,1019.09
2022-08-23T03:17:13.547Z,1019.11
2022-08-23T03:18:13.726Z,1019.08
2022-08-23T03:19:13.930Z,1019.09
2022-08-23T03:20:14.087Z,1019.12
2022-08-23T03:21:14.259Z,1019.18
2022-08-23T03:22:14.492Z,1019.14
2022-08-23T03:23:14.626Z,1019.17
2022-08-23T03:24:14.788Z,1019.16
2022-08-23T03:25:15.057Z,1019.18
2022-08-23T03:26:15.117Z,1019.19
2022-08-23T03:27:15.276Z,1019.18
2022-08-23T03:28:15.576Z,1019.15
2022-08-23T03:29:15.617Z,1019.16
2022-08-23T03:30:19.684Z,1019.12
2022-08-23T03:31:16.078Z,1019.14
2022-08-23T03:32:16.150Z,1019.17
2022-08-23T03:33:16.334Z,1019.17
2022-08-23T03:34:16.561Z,1019.16
2022-08-23T03:35:16.727Z,1019.14
2022-08-23T03:36:16.835Z,1019.13
2022-08-23T03:37:17.046Z,1019.16
2022-08-23T03:38:17.248Z,1019.21
2022-08-23T03:39:17.356Z,1019.22
2022-08-23T03:40:17.599Z,1019.22
2022-08-23T03:41:17.768Z,1019.23
2022-08-23T03:42:17.866Z,1019.25
2022-08-23T03:43:18.037Z,1019.23
2022-08-23T03:44:18.283Z,1019.26
2022-08-23T03:45:18.398Z,1019.28
2022-08-23T03:46:18.547Z,1019.27
2022-08-23T03:47:18.800Z,1019.31
2022-08-23T03:48:19.870Z,1019.31
2022-08-23T03:49:19.027Z,1019.32
2022-08-23T03:50:19.301Z,1019.37
2022-08-23T03:51:19.416Z,1019.31
2022-08-23T03:52:19.547Z,1019.32
2022-08-23T03:53:19.737Z,1019.30
2022-08-23T03:54:19.950Z,1019.32
2022-08-23T03:55:20.047Z,1019.33
2022-08-23T03:56:20.217Z,1019.34
2022-08-23T03:57:20.466Z,1019.33
2022-08-23T03:58:20.567Z,1019.34
2022-08-23T03:59:20.759Z,1019.33
2022-08-23T04:00:21.016Z,1019.34
2022-08-23T04:01:24.169Z,1019.29
2022-08-23T04:02:22.232Z,1019.29
2022-08-23T04:03:21.490Z,1019.29
2022-08-23T04:04:21.601Z,1019.33
2022-08-23T04:05:21.750Z,1019.30
2022-08-23T04:06:22.031Z,1019.32
2022-08-23T04:07:22.166Z,1019.37
2022-08-23T04:08:28.064Z,1019.32
2022-08-23T04:09:23.519Z,1019.30
2022-08-23T04:10:22.704Z,1019.31
2022-08-23T04:11:22.838Z,1019.32
2022-08-23T04:12:23.033Z,1019.34
2022-08-23T04:13:23.280Z,1019.34
2022-08-23T04:14:23.378Z,1019.33
2022-08-23T04:15:23.556Z,1019.34
2022-08-23T04:16:23.822Z,1019.32
2022-08-23T04:17:23.971Z,1019.35
2022-08-23T04:18:24.099Z,1019.33
2022-08-23T04:19:24.411Z,1019.33
2022-08-23T04:20:24.486Z,1019.35
2022-08-23T04:21:24.630Z,1019.33
2022-08-23T04:22:24.860Z,1019.36
2022-08-23T04:23:24.990Z,1019.31
2022-08-23T04:24:25.179Z,1019.31
2022-08-23T04:25:34.826Z,1019.33
2022-08-23T04:26:30.142Z,1019.35
2022-08-23T04:27:25.648Z,1019.34
2022-08-23T04:28:25.842Z,1019.36
2022-08-23T04:29:34.188Z,1019.35
2022-08-23T04:30:27.240Z,1019.34
2022-08-23T04:31:26.371Z,1019.34
2022-08-23T04:32:28.388Z,1019.36
2022-08-23T04:33:26.800Z,1019.36
2022-08-23T04:34:28.806Z,1019.36
2022-08-23T04:35:27.082Z,1019.37
2022-08-23T04:36:27.310Z,1019.35
2022-08-23T04:37:28.439Z,1019.37
2022-08-23T04:38:27.542Z,1019.38
2022-08-23T04:39:27.850Z,1019.37
2022-08-23T04:40:27.989Z,1019.40
2022-08-23T04:41:28.081Z,1019.42
2022-08-23T04:42:28.304Z,1019.41
2022-08-23T04:43:28.495Z,1019.42
2022-08-23T04:44:28.631Z,1019.43
2022-08-23T04:45:28.812Z,1019.44
2022-08-23T04:46:29.018Z,1019.46
2022-08-23T04:47:29.170Z,1019.47
2022-08-23T04:48:29.302Z,1019.46
2022-08-23T04:49:29.584Z,1019.49
2022-08-23T04:50:29.642Z,1019.53
2022-08-23T04:51:29.792Z,1019.57
2022-08-23T04:52:30.096Z,1019.55
2022-08-23T04:53:30.144Z,1019.60
2022-08-23T04:54:30.339Z,1019.60
2022-08-23T04:55:30.582Z,1019.62
2022-08-23T04:56:30.674Z,1019.61
2022-08-23T04:57:30.842Z,1019.66
2022-08-23T04:58:31.094Z,1019.62
2022-08-23T04:59:31.252Z,1019.64
2022-08-23T05:00:31.416Z,1019.62
2022-08-23T05:01:31.621Z,1019.61
2022-08-23T05:02:31.767Z,1019.62
2022-08-23T05:03:31.871Z,1019.62
2022-08-23T05:04:32.066Z,1019.61
2022-08-23T05:05:32.325Z,1019.60
2022-08-23T05:06:32.404Z,1019.62
2022-08-23T05:07:42.678Z,1019.61
2022-08-23T05:08:33.825Z,1019.62
2022-08-23T05:09:32.924Z,1019.60
2022-08-23T05:10:33.084Z,1019.62
2022-08-23T05:11:33.265Z,1019.62
2022-08-23T05:12:33.443Z,1019.62
2022-08-23T05:13:34.962Z,1019.65
2022-08-23T05:14:33.809Z,1019.63
2022-08-23T05:15:33.973Z,1019.63
2022-08-23T05:16:34.138Z,1019.67
2022-08-23T05:17:34.301Z,1019.65
2022-08-23T05:18:34.555Z,1019.69
2022-08-23T05:19:34.683Z,1019.67
2022-08-23T05:20:34.824Z,1019.75
2022-08-23T05:21:35.034Z,1019.73
2022-08-23T05:22:35.218Z,1019.77
2022-08-23T05:23:35.344Z,1019.76
2022-08-23T05:24:35.535Z,1019.77
2022-08-23T05:25:35.796Z,1019.76
2022-08-23T05:26:35.884Z,1019.76
2022-08-23T05:27:36.064Z,1019.79
2022-08-23T05:28:36.331Z,1019.81
2022-08-23T05:29:36.437Z,1019.83
2022-08-23T05:30:36.582Z,1019.84
2022-08-23T05:31:36.895Z,1019.84
2022-08-23T05:32:36.951Z,1019.88
2022-08-23T05:33:37.125Z,1019.86
2022-08-23T05:34:37.404Z,1019.88
2022-08-23T05:35:37.537Z,1019.86
2022-08-23T05:36:37.656Z,1019.85
2022-08-23T05:37:37.835Z,1019.88
2022-08-23T05:38:38.084Z,1019.82
2022-08-23T05:39:38.216Z,1019.79
2022-08-23T05:40:38.376Z,1019.80
2022-08-23T05:41:38.729Z,1019.82
2022-08-23T05:42:38.726Z,1019.73
2022-08-23T05:43:38.906Z,1019.77
2022-08-23T05:44:39.208Z,1019.77
2022-08-23T05:45:39.278Z,1019.80
2022-08-23T05:46:39.417Z,1019.78
2022-08-23T05:47:39.697Z,1019.77
2022-08-23T05:48:39.813Z,1019.78
2022-08-23T05:49:39.996Z,1019.79
2022-08-23T05:50:40.179Z,1019.77
2022-08-23T05:51:40.361Z,1019.80
2022-08-23T05:52:40.488Z,1019.81
2022-08-23T05:53:40.668Z,1019.81
2022-08-23T05:54:40.975Z,1019.79
2022-08-23T05:55:41.037Z,1019.80
2022-08-23T05:56:41.168Z,1019.79
2022-08-23T05:57:41.428Z,1019.80
2022-08-23T05:58:41.535Z,1019.82
2022-08-23T05:59:41.833Z,1019.82
2022-08-23T06:00:42.090Z,1019.81
2022-08-23T06:01:42.084Z,1019.82
2022-08-23T06:02:42.270Z,1019.83
2022-08-23T06:03:42.502Z,1019.82
2022-08-23T06:04:42.640Z,1019.84
2022-08-23T06:05:42.767Z,1019.83
2022-08-23T06:06:42.958Z,1019.82
2022-08-23T06:07:43.165Z,1019.85
2022-08-23T06:08:43.286Z,1019.81
2022-08-23T06:09:43.480Z,1019.82
2022-08-23T06:10:43.719Z,1019.80
2022-08-23T06:11:43.848Z,1019.82
2022-08-23T06:12:44.022Z,1019.82
2022-08-23T06:13:44.330Z,1019.81
2022-08-23T06:14:44.418Z,1019.82
2022-08-23T06:15:44.549Z,1019.82
2022-08-23T06:16:44.819Z,1019.85
2022-08-23T06:17:44.920Z,1019.84
2022-08-23T06:18:45.081Z,1019.86
2022-08-23T06:19:45.370Z,1019.81
2022-08-23T06:20:45.534Z,1019.83
2022-08-23T06:21:45.599Z,1019.83
2022-08-23T06:22:45.813Z,1019.80
2022-08-23T06:23:45.968Z,1019.81
2022-08-23T06:24:46.123Z,1019.83
2022-08-23T06:25:46.308Z,1019.84
2022-08-23T06:26:46.534Z,1019.84
2022-08-23T06:27:47.141Z,1019.86
2022-08-23T06:28:50.665Z,1019.84
2022-08-23T06:29:47.072Z,1019.81
2022-08-23T06:30:47.172Z,1019.84
2022-08-23T06:31:47.446Z,1019.84
2022-08-23T06:32:47.592Z,1019.84
2022-08-23T06:33:47.696Z,1019.84
2022-08-23T06:34:47.831Z,1019.82
2022-08-23T06:35:47.980Z,1019.88
2022-08-23T06:36:48.152Z,1019.87
2022-08-23T06:37:48.331Z,1019.87
2022-08-23T06:38:48.519Z,1019.89
2022-08-23T06:39:48.743Z,1019.94
2022-08-23T06:40:48.963Z,1019.94
2022-08-23T06:41:49.065Z,1019.94
2022-08-23T06:42:49.243Z,1019.96
2022-08-23T06:43:49.500Z,1019.95
2022-08-23T06:44:49.640Z,1019.94
2022-08-23T06:45:55.126Z,1019.99
2022-08-23T06:46:51.072Z,1020.01
2022-08-23T06:47:50.176Z,1020.01
2022-08-23T06:48:50.313Z,1019.98
2022-08-23T06:49:51.106Z,1020.01
2022-08-23T06:50:51.719Z,1020.04
2022-08-23T06:51:50.830Z,1020.00
2022-08-23T06:52:51.003Z,1020.04
2022-08-23T06:53:51.226Z,1020.05
2022-08-23T06:54:51.324Z,1020.09
2022-08-23T06:55:51.493Z,1020.10
2022-08-23T06:56:51.759Z,1020.07
2022-08-23T06:57:51.846Z,1020.08
2022-08-23T06:58:52.024Z,1020.07
2022-08-23T06:59:52.327Z,1020.06
2022-08-23T07:00:57.200Z,1020.07
2022-08-23T07:01:53.618Z,1020.05
2022-08-23T07:02:52.839Z,1020.13
2022-08-23T07:03:52.926Z,1020.12
2022-08-23T07:04:53.065Z,1020.07
2022-08-23T07:05:53.244Z,1020.05
2022-08-23T07:06:53.515Z,1020.06
2022-08-23T07:07:53.564Z,1020.05
2022-08-23T07:08:53.744Z,1020.06
2022-08-23T07:09:54.063Z,1020.03
2022-08-23T07:10:54.095Z,1019.99
2022-08-23T07:11:54.278Z,1020.02
2022-08-23T07:12:54.570Z,1020.01
2022-08-23T07:13:54.648Z,1020.03
2022-08-23T07:14:54.836Z,1020.03
2022-08-23T07:15:55.158Z,1020.03
2022-08-23T07:16:55.203Z,1020.06
2022-08-23T07:17:55.356Z,1020.09
2022-08-23T07:18:55.529Z,1020.12
2022-08-23T07:19:55.711Z,1020.07
2022-08-23T07:20:55.914Z,1020.07
2022-08-23T07:21:56.068Z,1020.10
2022-08-23T07:22:56.267Z,1020.07
2022-08-23T07:23:56.428Z,1020.07
2022-08-23T07:24:56.537Z,1020.06
2022-08-23T07:25:56.727Z,1020.03
2022-08-23T07:26:56.920Z,1020.04
2022-08-23T07:27:57.151Z,1020.02
2022-08-23T07:28:57.258Z,1020.07
2022-08-23T07:29:57.475Z,1020.09
2022-08-23T07:30:57.579Z,1020.11
2022-08-23T07:31:57.860Z,1020.07
2022-08-23T07:32:57.972Z,1020.07
2022-08-23T07:33:58.905Z,1020.08
2022-08-23T07:34:58.278Z,1020.05
2022-08-23T07:35:58.558Z,1020.09
2022-08-23T07:36:58.649Z,1020.06
2022-08-23T07:37:58.840Z,1020.06
2022-08-23T07:38:59.131Z,1020.06
2022-08-23T07:39:59.266Z,1020.08
2022-08-23T07:40:59.379Z,1020.03
2022-08-23T07:41:59.596Z,1020.05
2022-08-23T07:42:59.960Z,1020.04
2022-08-23T07:43:59.914Z,1020.02
2022-08-23T07:45:00.105Z,1019.99
2022-08-23T07:46:00.308Z,1019.98
2022-08-23T07:47:00.771Z,1019.97
2022-08-23T07:48:00.673Z,1019.95
2022-08-23T07:49:00.861Z,1019.99
2022-08-23T07:50:00.922Z,1020.03
2022-08-23T07:51:02.188Z,1020.02
2022-08-23T07:52:01.352Z,1020.05
2022-08-23T07:53:01.432Z,1020.05
2022-08-23T07:54:01.624Z,1020.02
2022-08-23T07:55:01.863Z,1020.08
2022-08-23T07:56:03.203Z,1020.10
2022-08-23T07:57:02.111Z,1020.10
2022-08-23T07:58:02.557Z,1020.05
2022-08-23T07:59:02.494Z,1020.02
2022-08-23T08:00:02.603Z,1020.09
2022-08-23T08:01:02.800Z,1020.08
2022-08-23T08:02:03.091Z,1020.08
2022-08-23T08:03:03.212Z,1020.08
2022-08-23T08:04:03.322Z,1020.10
2022-08-23T08:05:03.593Z,1020.03
2022-08-23T08:06:03.673Z,1020.08
2022-08-23T08:07:19.559Z,1020.05
2022-08-23T08:08:05.129Z,1020.03
2022-08-23T08:09:04.203Z,1020.02
2022-08-23T08:10:04.385Z,1020.05
2022-08-23T08:11:04.632Z,1020.03
2022-08-23T08:12:04.740Z,1020.01
2022-08-23T08:13:04.923Z,1020.00
2022-08-23T08:14:05.231Z,1020.03
2022-08-23T08:15:05.278Z,1020.01
2022-08-23T08:16:05.457Z,1019.99
2022-08-23T08:17:05.598Z,1020.01
2022-08-23T08:18:05.755Z,1020.06
2022-08-23T08:19:07.823Z,1020.08
2022-08-23T08:20:06.076Z,1020.05
2022-08-23T08:21:06.256Z,1020.06
2022-08-23T08:22:06.498Z,1020.14
2022-08-23T08:23:06.607Z,1020.13
2022-08-23T08:24:06.811Z,1020.11
2022-08-23T08:25:07.077Z,1020.10
2022-08-23T08:26:07.159Z,1020.13
2022-08-23T08:27:07.922Z,1020.16
2022-08-23T08:28:11.472Z,1020.12
2022-08-23T08:29:08.701Z,1020.17
2022-08-23T08:30:07.838Z,1020.12
2022-08-23T08:31:08.274Z,1020.16
2022-08-23T08:32:08.212Z,1020.12
2022-08-23T08:33:09.378Z,1020.04
2022-08-23T08:34:08.654Z,1020.09
2022-08-23T08:35:08.792Z,1020.06
2022-08-23T08:36:08.910Z,1020.08
2022-08-23T08:37:09.089Z,1020.10
2022-08-23T08:38:09.327Z,1020.09
2022-08-23T08:39:10.416Z,1020.06
2022-08-23T08:40:09.652Z,1020.10
2022-08-23T08:41:09.856Z,1020.08
2022-08-23T08:42:09.991Z,1020.09
2022-08-23T08:43:10.181Z,1020.05
2022-08-23T08:44:13.603Z,1019.99
2022-08-23T08:45:11.542Z,1020.03
2022-08-23T08:46:10.724Z,1019.97
2022-08-23T08:47:10.993Z,1020.05
2022-08-23T08:48:13.554Z,1020.02
2022-08-23T08:49:11.313Z,1020.05
2022-08-23T08:50:11.473Z,1020.04
2022-08-23T08:51:11.663Z,1019.99
2022-08-23T08:52:11.783Z,1020.05
2022-08-23T08:53:11.994Z,1020.06
2022-08-23T08:54:12.217Z,1020.03
2022-08-23T08:55:12.305Z,1020.01
2022-08-23T08:56:12.485Z,1019.99
2022-08-23T08:57:13.744Z,1019.97
2022-08-23T08:58:12.845Z,1019.92
2022-08-23T08:59:13.049Z,1019.95
2022-08-23T09:00:13.269Z,1019.95
2022-08-23T09:01:13.416Z,1019.95
2022-08-23T09:02:31.946Z,1019.96
2022-08-23T09:03:14.938Z,1019.93
2022-08-23T09:04:13.959Z,1019.93
2022-08-23T09:05:14.128Z,1019.89
2022-08-23T09:06:14.316Z,1019.87
2022-08-23T09:07:14.517Z,1019.84
2022-08-23T09:08:14.656Z,1019.87
2022-08-23T09:09:14.867Z,1019.86
2022-08-23T09:10:15.062Z,1019.85
2022-08-23T09:11:15.198Z,1019.84
2022-08-23T09:12:16.158Z,1019.82
2022-08-23T09:13:15.611Z,1019.81
2022-08-23T09:14:15.789Z,1019.80
2022-08-23T09:15:15.913Z,1019.82
2022-08-23T09:16:16.211Z,1019.78
2022-08-23T09:17:16.242Z,1019.78
2022-08-23T09:18:16.430Z,1019.74
2022-08-23T09:19:16.741Z,1019.75
2022-08-23T09:20:16.792Z,1019.76
2022-08-23T09:21:16.982Z,1019.78
2022-08-23T09:22:17.245Z,1019.76
2022-08-23T09:23:17.351Z,1019.77
2022-08-23T09:24:17.532Z,1019.75
2022-08-23T09:25:17.768Z,1019.72
2022-08-23T09:26:17.933Z,1019.70
2022-08-23T09:27:18.092Z,1019.66
2022-08-23T09:28:18.260Z,1019.73
2022-08-23T09:29:18.529Z,1019.63
2022-08-23T09:30:18.633Z,1019.72
2022-08-23T09:31:18.825Z,1019.67
2022-08-23T09:32:19.115Z,1019.71
2022-08-23T09:33:19.164Z,1019.69
2022-08-23T09:34:19.373Z,1019.67
2022-08-23T09:35:19.596Z,1019.70
2022-08-23T09:36:19.686Z,1019.73
2022-08-23T09:37:19.864Z,1019.68
2022-08-23T09:38:20.113Z,1019.74
2022-08-23T09:39:20.260Z,1019.74
2022-08-23T09:40:20.451Z,1019.71
2022-08-23T09:41:20.637Z,1019.73
2022-08-23T09:42:20.776Z,1019.79
2022-08-23T09:43:21.935Z,1019.80
2022-08-23T09:44:21.130Z,1019.78
2022-08-23T09:45:21.295Z,1019.77
2022-08-23T09:46:21.441Z,1019.77
2022-08-23T09:47:21.608Z,1019.80
2022-08-23T09:48:21.849Z,1019.73
2022-08-23T09:49:21.969Z,1019.80
2022-08-23T09:50:22.118Z,1019.76
2022-08-23T09:51:22.382Z,1019.79
2022-08-23T09:52:22.533Z,1019.82
2022-08-23T09:53:22.662Z,1019.79
2022-08-23T09:54:22.959Z,1019.73
2022-08-23T09:55:23.013Z,1019.71
2022-08-23T09:56:23.180Z,1019.74
2022-08-23T09:57:23.449Z,1019.68
2022-08-23T09:58:23.558Z,1019.72
2022-08-23T09:59:26.484Z,1019.66
2022-08-23T10:00:23.945Z,1019.66
2022-08-23T10:01:24.164Z,1019.68
2022-08-23T10:02:24.262Z,1019.68
2022-08-23T10:03:24.446Z,1019.65
2022-08-23T10:04:24.767Z,1019.68
2022-08-23T10:05:24.820Z,1019.64
2022-08-23T10:06:24.983Z,1019.65
2022-08-23T10:07:26.250Z,1019.60
2022-08-23T10:08:25.344Z,1019.63
2022-08-23T10:09:25.543Z,1019.58
2022-08-23T10:10:25.772Z,1019.62
2022-08-23T10:11:25.895Z,1019.59
2022-08-23T10:12:26.073Z,1019.55
2022-08-23T10:13:26.366Z,1019.55
2022-08-23T10:14:28.795Z,1019.57
2022-08-23T10:15:26.595Z,1019.60
2022-08-23T10:16:26.839Z,1019.52
2022-08-23T10:17:27.002Z,1019.54
2022-08-23T10:18:27.175Z,1019.51
2022-08-23T10:19:27.345Z,1019.56
2022-08-23T10:20:27.698Z,1019.58
2022-08-23T10:21:27.663Z,1019.54
2022-08-23T10:22:27.836Z,1019.57
2022-08-23T10:23:28.089Z,1019.56
2022-08-23T10:24:28.223Z,1019.55
2022-08-23T10:25:28.356Z,1019.57
2022-08-23T10:26:28.619Z,1019.57
2022-08-23T10:27:28.718Z,1019.59
2022-08-23T10:28:28.887Z,1019.58
2022-08-23T10:29:29.188Z,1019.57
2022-08-23T10:30:29.262Z,1019.58
2022-08-23T10:31:29.486Z,1019.60
2022-08-23T10:32:29.638Z,1019.57
2022-08-23T10:33:29.797Z,1019.63
2022-08-23T10:34:30.125Z,1019.58
2022-08-23T10:35:30.138Z,1019.61
2022-08-23T10:36:30.344Z,1019.57
2022-08-23T10:37:30.483Z,1019.58
2022-08-23T10:38:30.640Z,1019.61
2022-08-23T10:39:30.828Z,1019.58
2022-08-23T10:40:31.027Z,1019.59
2022-08-23T10:41:31.173Z,1019.58
2022-08-23T10:42:31.397Z,1019.62
2022-08-23T10:43:31.529Z,1019.56
2022-08-23T10:44:31.751Z,1019.57
2022-08-23T10:45:31.984Z,1019.62
2022-08-23T10:46:32.131Z,1019.67
2022-08-23T10:47:32.245Z,1019.56
2022-08-23T10:48:32.493Z,1019.62
2022-08-23T10:49:32.621Z,1019.63
2022-08-23T10:50:32.762Z,1019.60
2022-08-23T10:51:33.012Z,1019.65
2022-08-23T10:52:33.152Z,1019.71
2022-08-23T10:53:33.277Z,1019.68
2022-08-23T10:54:33.450Z,1019.73
2022-08-23T10:55:33.670Z,1019.73
2022-08-23T10:56:33.785Z,1019.68
2022-08-23T10:57:33.955Z,1019.68
2022-08-23T10:58:34.192Z,1019.67
2022-08-23T10:59:34.338Z,1019.70
2022-08-23T11:00:34.492Z,1019.62
2022-08-23T11:01:34.840Z,1019.61
2022-08-23T11:02:34.911Z,1019.64
2022-08-23T11:03:35.014Z,1019.65
2022-08-23T11:04:35.304Z,1019.61
2022-08-23T11:05:35.382Z,1019.63
2022-08-23T11:06:35.516Z,1019.68
2022-08-23T11:07:35.756Z,1019.62
2022-08-23T11:08:35.884Z,1019.65
2022-08-23T11:09:36.046Z,1019.62
2022-08-23T11:10:36.238Z,1019.65
2022-08-23T11:11:36.439Z,1019.59
2022-08-23T11:12:36.583Z,1019.62
2022-08-23T11:13:36.748Z,1019.58
2022-08-23T11:14:37.012Z,1019.62
2022-08-23T11:15:37.207Z,1019.67
2022-08-23T11:16:38.315Z,1019.61
2022-08-23T11:17:37.486Z,1019.63
2022-08-23T11:18:37.657Z,1019.70
2022-08-23T11:19:37.924Z,1019.65
2022-08-23T11:20:38.027Z,1019.66
2022-08-23T11:21:38.168Z,1019.69
2022-08-23T11:22:38.340Z,1019.68
2022-08-23T11:23:38.575Z,1019.60
2022-08-23T11:24:38.706Z,1019.64
2022-08-23T11:25:38.849Z,1019.70
2022-08-23T11:26:39.097Z,1019.68
2022-08-23T11:27:39.229Z,1019.62
2022-08-23T11:28:39.410Z,1019.63
2022-08-23T11:29:39.725Z,1019.65
2022-08-23T11:30:39.820Z,1019.67
2022-08-23T11:31:39.941Z,1019.63
2022-08-23T11:32:40.215Z,1019.62
2022-08-23T11:33:40.290Z,1019.65
2022-08-23T11:34:40.482Z,1019.63
2022-08-23T11:35:43.420Z,1019.63
2022-08-23T11:36:40.893Z,1019.57
2022-08-23T11:37:41.001Z,1019.61
2022-08-23T11:38:41.215Z,1019.58
2022-08-23T11:39:41.470Z,1019.57
2022-08-23T11:40:41.560Z,1019.57
2022-08-23T11:41:41.752Z,1019.56
2022-08-23T11:42:41.947Z,1019.57
2022-08-23T11:43:42.073Z,1019.55
2022-08-23T11:44:42.263Z,1019.52
2022-08-23T11:45:42.480Z,1019.58
2022-08-23T11:46:42.584Z,1019.57
2022-08-23T11:47:42.776Z,1019.62
2022-08-23T11:48:43.489Z,1019.62
2022-08-23T11:49:43.135Z,1019.58
2022-08-23T11:50:43.293Z,1019.64
2022-08-23T11:51:43.500Z,1019.67
2022-08-23T11:52:43.658Z,1019.67
2022-08-23T11:53:43.807Z,1019.62
2022-08-23T11:54:44.025Z,1019.60
2022-08-23T11:55:44.142Z,1019.60
2022-08-23T11:56:46.272Z,1019.62
2022-08-23T11:57:44.477Z,1019.65
2022-08-23T11:58:44.686Z,1019.69
2022-08-23T11:59:44.773Z,1019.62
2022-08-23T12:00:44.954Z,1019.67
2022-08-23T12:01:45.197Z,1019.64
2022-08-23T12:02:45.423Z,1019.75
2022-08-23T12:03:46.069Z,1019.71
2022-08-23T12:04:45.734Z,1019.70
2022-08-23T12:05:45.857Z,1019.74
2022-08-23T12:06:50.526Z,1019.71
2022-08-23T12:07:47.298Z,1019.72
2022-08-23T12:08:46.429Z,1019.77